createdAt,value
2024-03-27T00:01:39.917Z,98515.11
2024-03-27T00:04:10.567Z,98516.69
2024-03-27T00:06:41.177Z,98517.05
2024-03-27T00:09:11.264Z,98507.08
2024-03-27T00:11:41.518Z,98506.97
2024-03-27T00:14:12.174Z,98502.11
2024-03-27T00:16:42.880Z,98499.38
2024-03-27T00:19:13.662Z,98497.50
2024-03-27T00:21:43.994Z,98497.45
2024-03-27T00:24:14.622Z,98500.86
2024-03-27T00:26:45.208Z,98495.73
2024-03-27T00:29:15.629Z,98493.68
2024-03-27T00:31:45.881Z,98493.16
2024-03-27T00:34:16.568Z,98491.20
2024-03-27T00:36:47.117Z,98489.27
2024-03-27T00:39:17.768Z,98483.51
2024-03-27T00:41:48.016Z,98486.01
2024-03-27T00:44:18.656Z,98483.15
2024-03-27T00:46:49.246Z,98480.21
2024-03-27T00:49:19.900Z,98475.40
2024-03-27T00:51:50.215Z,98469.02
2024-03-27T00:54:20.595Z,98472.53
2024-03-27T00:56:51.397Z,98469.27
2024-03-27T00:59:22.041Z,98467.12
2024-03-27T01:01:52.361Z,98465.72
2024-03-27T01:04:23.020Z,98461.96
2024-03-27T01:06:53.616Z,98457.86
2024-03-27T01:09:24.302Z,98458.72
2024-03-27T01:11:54.866Z,98455.72
2024-03-27T01:14:25.498Z,98458.39
2024-03-27T01:16:56.047Z,98458.39
2024-03-27T01:19:26.702Z,98460.95
2024-03-27T01:21:57.002Z,98458.71
2024-03-27T01:24:27.667Z,98457.41
2024-03-27T01:26:57.971Z,98452.80
2024-03-27T01:29:28.282Z,98443.91
2024-03-27T01:31:58.593Z,98443.11
2024-03-27T01:34:29.239Z,98446.18
2024-03-27T01:36:59.316Z,98444.18
2024-03-27T01:39:30.219Z,98444.45
2024-03-27T01:42:00.814Z,98444.66
2024-03-27T01:44:31.439Z,98444.60
2024-03-27T01:47:02.064Z,98441.56
2024-03-27T01:49:32.373Z,98436.28
2024-03-27T01:52:02.975Z,98431.97
2024-03-27T01:54:33.658Z,98431.67
2024-03-27T01:57:04.239Z,98430.82
2024-03-27T01:59:34.592Z,98431.87
2024-03-27T02:02:04.971Z,98433.15
2024-03-27T02:04:35.579Z,98433.44
2024-03-27T02:07:06.206Z,98426.11
2024-03-27T02:09:37.112Z,98422.99
2024-03-27T02:12:07.668Z,98422.07
2024-03-27T02:14:38.306Z,98421.07
2024-03-27T02:17:16.421Z,98416.01
2024-03-27T02:19:39.643Z,98414.04
2024-03-27T02:22:10.152Z,98411.39
2024-03-27T02:24:40.807Z,98405.64
2024-03-27T02:27:11.425Z,98393.23
2024-03-27T02:29:42.030Z,98383.22
2024-03-27T02:32:12.860Z,98377.82
2024-03-27T02:34:43.525Z,98372.90
2024-03-27T02:37:14.130Z,98369.78
2024-03-27T02:39:44.297Z,98369.40
2024-03-27T02:42:14.844Z,98362.38
2024-03-27T02:44:45.143Z,98360.83
2024-03-27T02:47:15.269Z,98354.39
2024-03-27T02:49:45.870Z,98352.43
2024-03-27T02:52:15.853Z,98353.85
2024-03-27T02:54:46.557Z,98355.37
2024-03-27T02:57:16.840Z,98354.60
2024-03-27T02:59:47.490Z,98351.61
2024-03-27T03:02:18.085Z,98346.93
2024-03-27T03:04:48.742Z,98342.03
2024-03-27T03:07:19.651Z,98343.22
2024-03-27T03:09:50.194Z,98342.14
2024-03-27T03:12:20.781Z,98345.55
2024-03-27T03:14:51.489Z,98348.40
2024-03-27T03:17:22.027Z,98346.26
2024-03-27T03:19:52.652Z,98354.63
2024-03-27T03:22:23.261Z,98362.44
2024-03-27T03:24:53.894Z,98363.25
2024-03-27T03:27:24.501Z,98357.98
2024-03-27T03:29:55.127Z,98352.35
2024-03-27T03:32:25.739Z,98355.60
2024-03-27T03:34:56.375Z,98352.67
2024-03-27T03:37:26.960Z,98353.66
2024-03-27T03:39:57.623Z,98357.00
2024-03-27T03:42:27.977Z,98357.71
2024-03-27T03:44:58.256Z,98353.91
2024-03-27T03:47:28.881Z,98351.82
2024-03-27T03:49:59.494Z,98352.34
2024-03-27T03:52:30.132Z,98356.66
2024-03-27T03:55:00.811Z,98356.33
2024-03-27T03:57:30.997Z,98357.82
2024-03-27T04:00:01.583Z,98356.77
2024-03-27T04:02:32.072Z,98357.45
2024-03-27T04:05:02.286Z,98356.64
2024-03-27T04:07:32.920Z,98356.80
2024-03-27T04:10:03.500Z,98354.55
2024-03-27T04:12:34.146Z,98350.83
2024-03-27T04:15:04.370Z,98352.33
2024-03-27T04:17:35.066Z,98348.13
2024-03-27T04:20:05.615Z,98346.32
2024-03-27T04:22:36.022Z,98343.39
2024-03-27T04:25:06.400Z,98346.28
2024-03-27T04:27:37.029Z,98348.26
2024-03-27T04:30:07.270Z,98344.83
2024-03-27T04:32:37.886Z,98343.36
2024-03-27T04:35:08.797Z,98347.17
2024-03-27T04:37:38.852Z,98341.41
2024-03-27T04:40:09.605Z,98335.26
2024-03-27T04:42:40.074Z,98334.24
2024-03-27T04:45:10.478Z,98335.71
2024-03-27T04:47:40.797Z,98339.39
2024-03-27T04:50:11.051Z,98337.92
2024-03-27T04:52:41.710Z,98332.74
2024-03-27T04:55:12.045Z,98332.11
2024-03-27T04:57:42.635Z,98334.64
2024-03-27T05:00:13.381Z,98327.89
2024-03-27T05:02:43.888Z,98328.66
2024-03-27T05:05:14.532Z,98323.14
2024-03-27T05:07:45.146Z,98318.64
2024-03-27T05:10:15.864Z,98319.74
2024-03-27T05:12:46.043Z,98324.11
2024-03-27T05:15:16.690Z,98325.59
2024-03-27T05:17:47.303Z,98318.88
2024-03-27T05:20:17.485Z,98317.10
2024-03-27T05:22:47.670Z,98319.14
2024-03-27T05:25:17.825Z,98321.07
2024-03-27T05:27:48.401Z,98323.69
2024-03-27T05:30:19.065Z,98321.26
2024-03-27T05:32:49.703Z,98323.14
2024-03-27T05:35:20.399Z,98326.84
2024-03-27T05:37:51.058Z,98325.05
2024-03-27T05:40:21.663Z,98317.84
2024-03-27T05:42:52.355Z,98317.31
2024-03-27T05:45:22.722Z,98321.11
2024-03-27T05:47:53.390Z,98324.37
2024-03-27T05:50:24.078Z,98328.52
2024-03-27T05:52:54.764Z,98335.95
2024-03-27T05:55:25.612Z,98340.23
2024-03-27T05:57:56.172Z,98341.47
2024-03-27T06:00:26.632Z,98342.34
2024-03-27T06:02:56.626Z,98343.58
2024-03-27T06:05:27.560Z,98340.34
2024-03-27T06:07:58.211Z,98333.26
2024-03-27T06:10:28.941Z,98326.41
2024-03-27T06:12:59.319Z,98317.90
2024-03-27T06:15:29.944Z,98314.03
2024-03-27T06:18:00.604Z,98315.69
2024-03-27T06:20:31.277Z,98315.09
2024-03-27T06:23:01.640Z,98308.47
2024-03-27T06:25:32.061Z,98302.35
2024-03-27T06:28:02.022Z,98303.57
2024-03-27T06:30:32.667Z,98305.61
2024-03-27T06:33:02.685Z,98315.32
2024-03-27T06:35:33.027Z,98322.23
2024-03-27T06:38:03.658Z,98316.49
2024-03-27T06:40:34.042Z,98317.27
2024-03-27T06:43:04.291Z,98334.84
2024-03-27T06:45:46.357Z,98346.76
2024-03-27T06:48:05.099Z,98347.94
2024-03-27T06:50:35.329Z,98353.14
2024-03-27T06:53:05.967Z,98362.22
2024-03-27T06:55:36.488Z,98359.36
2024-03-27T06:58:07.075Z,98362.16
2024-03-27T07:00:37.632Z,98365.38
2024-03-27T07:03:07.977Z,98365.64
2024-03-27T07:05:38.647Z,98367.38
2024-03-27T07:08:09.266Z,98368.11
2024-03-27T07:10:39.598Z,98362.80
2024-03-27T07:13:10.064Z,98362.60
2024-03-27T07:15:39.968Z,98360.83
2024-03-27T07:18:10.585Z,98355.48
2024-03-27T07:20:40.932Z,98358.70
2024-03-27T07:23:11.270Z,98355.44
2024-03-27T07:25:41.925Z,98357.68
2024-03-27T07:28:12.695Z,98356.64
2024-03-27T07:30:46.836Z,98357.19
2024-03-27T07:33:13.351Z,98360.44
2024-03-27T07:35:44.178Z,98354.47
2024-03-27T07:38:14.491Z,98352.83
2024-03-27T07:40:45.111Z,98352.73
2024-03-27T07:43:15.461Z,98353.31
2024-03-27T07:45:46.299Z,98361.59
2024-03-27T07:48:16.570Z,98367.13
2024-03-27T07:50:46.912Z,98374.74
2024-03-27T07:53:17.612Z,98372.59
2024-03-27T07:55:47.740Z,98383.73
2024-03-27T07:58:18.306Z,98390.83
2024-03-27T08:00:48.994Z,98395.46
2024-03-27T08:03:19.283Z,98400.80
2024-03-27T08:05:49.543Z,98403.17
2024-03-27T08:08:20.344Z,98393.60
2024-03-27T08:10:50.696Z,98394.65
2024-03-27T08:13:21.237Z,98373.88
2024-03-27T08:15:51.850Z,98378.35
2024-03-27T08:18:22.426Z,98375.88
2024-03-27T08:20:52.824Z,98366.28
2024-03-27T08:23:23.262Z,98372.23
2024-03-27T08:25:53.880Z,98373.74
2024-03-27T08:28:24.064Z,98375.39
2024-03-27T08:30:54.431Z,98378.39
2024-03-27T08:33:24.958Z,98384.22
2024-03-27T08:35:55.496Z,98382.84
2024-03-27T08:38:26.039Z,98384.36
2024-03-27T08:40:56.449Z,98380.04
2024-03-27T08:43:26.874Z,98384.70
2024-03-27T08:45:57.454Z,98396.55
2024-03-27T08:48:27.642Z,98397.56
2024-03-27T08:50:58.222Z,98402.82
2024-03-27T08:53:28.737Z,98403.45
2024-03-27T08:55:59.327Z,98401.56
2024-03-27T08:58:30.119Z,98391.63
2024-03-27T09:01:00.509Z,98386.67
2024-03-27T09:03:30.944Z,98390.94
2024-03-27T09:06:01.561Z,98390.67
2024-03-27T09:08:31.977Z,98383.00
2024-03-27T09:11:02.554Z,98382.76
2024-03-27T09:13:33.027Z,98386.46
2024-03-27T09:16:03.571Z,98402.29
2024-03-27T09:18:33.733Z,98403.54
2024-03-27T09:21:04.281Z,98405.62
2024-03-27T09:23:34.822Z,98404.75
2024-03-27T09:26:05.337Z,98407.37
2024-03-27T09:28:35.825Z,98402.85
2024-03-27T09:31:06.071Z,98405.68
2024-03-27T09:33:36.282Z,98401.49
2024-03-27T09:36:06.865Z,98401.50
2024-03-27T09:38:37.279Z,98407.25
2024-03-27T09:41:07.455Z,98402.25
2024-03-27T09:43:37.934Z,98404.35
2024-03-27T09:46:08.418Z,98404.43
2024-03-27T09:48:39.008Z,98405.30
2024-03-27T09:51:09.386Z,98408.35
2024-03-27T09:53:39.868Z,98413.17
2024-03-27T09:56:10.496Z,98414.62
2024-03-27T09:58:40.827Z,98418.66
2024-03-27T10:01:11.480Z,98420.26
2024-03-27T10:03:41.983Z,98426.18
2024-03-27T10:06:12.520Z,98426.48
2024-03-27T10:08:43.091Z,98423.57
2024-03-27T10:11:13.730Z,98421.31
2024-03-27T10:13:43.945Z,98420.61
2024-03-27T10:16:14.728Z,98423.80
2024-03-27T10:18:44.679Z,98423.29
2024-03-27T10:21:14.891Z,98418.46
2024-03-27T10:23:45.060Z,98426.72
2024-03-27T10:26:15.384Z,98438.38
2024-03-27T10:28:45.924Z,98438.50
2024-03-27T10:31:16.168Z,98439.20
2024-03-27T10:33:46.475Z,98435.23
2024-03-27T10:36:17.493Z,98445.85
2024-03-27T10:38:47.651Z,98453.05
2024-03-27T10:41:18.127Z,98456.32
2024-03-27T10:43:48.845Z,98456.31
2024-03-27T10:46:19.165Z,98459.39
2024-03-27T10:48:49.620Z,98461.22
2024-03-27T10:51:20.075Z,98461.31
2024-03-27T10:53:50.526Z,98466.28
2024-03-27T10:56:21.114Z,98470.27
2024-03-27T10:58:51.847Z,98468.26
2024-03-27T11:01:22.009Z,98472.08
2024-03-27T11:03:52.227Z,98476.57
2024-03-27T11:06:22.284Z,98471.87
2024-03-27T11:08:53.076Z,98470.06
2024-03-27T11:11:23.788Z,98467.88
2024-03-27T11:13:54.243Z,98468.53
2024-03-27T11:16:24.771Z,98475.54
2024-03-27T11:18:55.147Z,98470.34
2024-03-27T11:21:25.633Z,98471.13
2024-03-27T11:23:56.085Z,98473.52
2024-03-27T11:26:26.575Z,98473.00
2024-03-27T11:28:56.996Z,98470.24
2024-03-27T11:31:27.471Z,98470.19
2024-03-27T11:33:57.956Z,98469.84
2024-03-27T11:36:28.379Z,98471.24
2024-03-27T11:38:58.379Z,98477.75
2024-03-27T11:41:28.655Z,98473.97
2024-03-27T11:43:58.980Z,98472.28
2024-03-27T11:46:29.731Z,98481.08
2024-03-27T11:49:00.090Z,98491.82
2024-03-27T11:51:30.427Z,98494.37
2024-03-27T11:54:00.441Z,98493.35
2024-03-27T11:56:31.032Z,98494.69
2024-03-27T11:59:01.084Z,98497.53
2024-03-27T12:01:31.703Z,98503.64
2024-03-27T12:04:02.089Z,98504.08
2024-03-27T12:06:32.426Z,98506.44
2024-03-27T12:09:03.073Z,98512.12
2024-03-27T12:11:33.389Z,98515.44
2024-03-27T12:14:03.452Z,98513.14
2024-03-27T12:16:33.729Z,98515.69
2024-03-27T12:19:04.188Z,98524.32
2024-03-27T12:21:34.693Z,98519.59
2024-03-27T12:24:05.171Z,98523.72
2024-03-27T12:26:35.820Z,98528.32
2024-03-27T12:29:06.245Z,98530.33
2024-03-27T12:31:36.649Z,98539.39
2024-03-27T12:34:07.145Z,98537.55
2024-03-27T12:36:37.623Z,98538.06
2024-03-27T12:39:07.629Z,98538.59
2024-03-27T12:41:37.952Z,98524.93
2024-03-27T12:44:08.214Z,98521.13
2024-03-27T12:46:38.381Z,98523.82
2024-03-27T12:49:09.039Z,98527.38
2024-03-27T12:51:39.408Z,98518.09
2024-03-27T12:54:10.528Z,98511.54
2024-03-27T12:56:40.617Z,98511.66
2024-03-27T12:59:10.669Z,98519.18
2024-03-27T13:01:40.789Z,98523.28
2024-03-27T13:04:10.760Z,98533.09
2024-03-27T13:06:40.925Z,98543.05
2024-03-27T13:09:11.719Z,98545.83
2024-03-27T13:11:42.399Z,98550.24
2024-03-27T13:14:12.996Z,98550.88
2024-03-27T13:16:43.864Z,98555.30
2024-03-27T13:19:14.149Z,98558.58
2024-03-27T13:21:44.694Z,98566.22
2024-03-27T13:24:15.312Z,98566.88
2024-03-27T13:26:45.718Z,98569.81
2024-03-27T13:29:15.728Z,98569.89
2024-03-27T13:31:46.428Z,98569.75
2024-03-27T13:34:16.968Z,98569.18
2024-03-27T13:36:47.326Z,98564.41
2024-03-27T13:39:17.341Z,98562.49
2024-03-27T13:41:47.432Z,98563.85
2024-03-27T13:44:18.046Z,98568.57
2024-03-27T13:46:48.165Z,98569.80
2024-03-27T13:49:18.393Z,98571.33
2024-03-27T13:51:49.150Z,98572.36
2024-03-27T13:54:19.289Z,98565.88
2024-03-27T13:56:49.973Z,98566.68
2024-03-27T13:59:22.283Z,98566.63
2024-03-27T14:01:50.680Z,98565.00
2024-03-27T14:04:21.512Z,98569.05
2024-03-27T14:06:52.326Z,98568.18
2024-03-27T14:09:22.466Z,98569.75
2024-03-27T14:11:52.904Z,98571.06
2024-03-27T14:14:23.546Z,98566.09
2024-03-27T14:16:53.831Z,98562.82
2024-03-27T14:19:24.340Z,98559.97
2024-03-27T14:21:54.927Z,98553.77
2024-03-27T14:24:25.340Z,98556.14
2024-03-27T14:26:55.892Z,98555.16
2024-03-27T14:29:26.136Z,98552.64
2024-03-27T14:31:56.630Z,98557.66
2024-03-27T14:34:27.126Z,98562.41
2024-03-27T14:36:57.656Z,98562.87
2024-03-27T14:39:28.183Z,98575.78
2024-03-27T14:41:58.697Z,98575.55
2024-03-27T14:44:29.198Z,98581.86
2024-03-27T14:46:59.733Z,98585.90
2024-03-27T14:49:30.209Z,98596.46
2024-03-27T14:52:00.444Z,98600.22
2024-03-27T14:54:30.928Z,98604.97
2024-03-27T14:57:01.117Z,98610.04
2024-03-27T14:59:31.608Z,98612.23
2024-03-27T15:02:02.154Z,98615.72
2024-03-27T15:04:32.301Z,98620.18
2024-03-27T15:07:02.789Z,98627.06
2024-03-27T15:09:41.099Z,98627.74
2024-03-27T15:12:03.815Z,98628.42
2024-03-27T15:14:35.498Z,98628.72
2024-03-27T15:17:04.510Z,98630.62
2024-03-27T15:19:34.988Z,98637.75
2024-03-27T15:22:05.524Z,98642.55
2024-03-27T15:24:35.994Z,98640.59
2024-03-27T15:27:06.175Z,98642.06
2024-03-27T15:29:36.331Z,98640.12
2024-03-27T15:32:06.833Z,98640.23
2024-03-27T15:34:37.416Z,98638.48
2024-03-27T15:37:07.813Z,98636.29
2024-03-27T15:39:38.233Z,98638.04
2024-03-27T15:42:08.725Z,98642.30
2024-03-27T15:44:39.166Z,98646.91
2024-03-27T15:47:09.652Z,98646.51
2024-03-27T15:49:40.066Z,98653.37
2024-03-27T15:52:10.560Z,98644.54
2024-03-27T15:54:41.123Z,98631.26
2024-03-27T15:57:11.236Z,98635.06
2024-03-27T15:59:44.503Z,98637.30
2024-03-27T16:02:12.151Z,98637.69
2024-03-27T16:04:49.738Z,98635.72
2024-03-27T16:07:13.045Z,98636.83
2024-03-27T16:09:43.595Z,98645.96
2024-03-27T16:12:14.038Z,98652.24
2024-03-27T16:14:44.830Z,98651.38
2024-03-27T16:17:15.500Z,98655.97
2024-03-27T16:19:45.933Z,98657.25
2024-03-27T16:22:16.670Z,98651.81
2024-03-27T16:24:46.572Z,98648.15
2024-03-27T16:27:17.182Z,98654.02
2024-03-27T16:29:47.602Z,98664.46
2024-03-27T16:32:18.070Z,98670.72
2024-03-27T16:34:48.514Z,98670.78
2024-03-27T16:37:19.000Z,98665.28
2024-03-27T16:39:49.452Z,98664.62
2024-03-27T16:42:19.922Z,98667.27
2024-03-27T16:44:50.364Z,98668.32
2024-03-27T16:47:20.882Z,98665.69
2024-03-27T16:49:51.300Z,98660.28
2024-03-27T16:52:21.783Z,98655.07
2024-03-27T16:54:52.215Z,98648.27
2024-03-27T16:57:22.702Z,98651.63
2024-03-27T16:59:53.156Z,98659.49
2024-03-27T17:02:23.652Z,98657.61
2024-03-27T17:04:54.095Z,98663.53
2024-03-27T17:07:24.587Z,98660.87
2024-03-27T17:09:55.065Z,98660.23
2024-03-27T17:12:25.603Z,98658.20
2024-03-27T17:14:56.068Z,98653.22
2024-03-27T17:17:26.353Z,98652.67
2024-03-27T17:19:56.420Z,98657.43
2024-03-27T17:22:26.917Z,98658.78
2024-03-27T17:24:57.547Z,98666.38
2024-03-27T17:27:27.986Z,98673.03
2024-03-27T17:29:58.379Z,98673.98
2024-03-27T17:32:28.935Z,98676.46
2024-03-27T17:34:59.358Z,98677.13
2024-03-27T17:37:29.888Z,98683.78
2024-03-27T17:40:00.413Z,98686.04
2024-03-27T17:42:30.880Z,98688.31
2024-03-27T17:45:01.356Z,98694.16
2024-03-27T17:47:31.967Z,98698.48
2024-03-27T17:50:02.332Z,98699.32
2024-03-27T17:52:32.893Z,98697.45
2024-03-27T17:55:03.352Z,98690.88
2024-03-27T17:57:33.874Z,98691.30
2024-03-27T18:00:04.485Z,98688.78
2024-03-27T18:02:34.864Z,98698.29
2024-03-27T18:05:05.354Z,98707.43
2024-03-27T18:07:35.595Z,98708.85
2024-03-27T18:10:06.086Z,98709.11
2024-03-27T18:12:36.590Z,98709.38
2024-03-27T18:15:07.053Z,98708.75
2024-03-27T18:17:37.583Z,98713.53
2024-03-27T18:20:08.305Z,98716.51
2024-03-27T18:22:38.305Z,98712.40
2024-03-27T18:25:08.881Z,98712.56
2024-03-27T18:27:39.372Z,98716.58
2024-03-27T18:30:09.812Z,98713.10
2024-03-27T18:32:40.326Z,98708.02
2024-03-27T18:35:10.826Z,98703.83
2024-03-27T18:37:41.350Z,98705.12
2024-03-27T18:40:11.836Z,98704.79
2024-03-27T18:42:42.413Z,98708.74
2024-03-27T18:45:12.848Z,98708.32
2024-03-27T18:47:43.377Z,98712.84
2024-03-27T18:50:13.918Z,98708.91
2024-03-27T18:52:44.442Z,98707.43
2024-03-27T18:55:14.957Z,98711.43
2024-03-27T18:57:45.538Z,98717.14
2024-03-27T19:00:15.846Z,98720.11
2024-03-27T19:02:46.225Z,98728.57
2024-03-27T19:05:16.882Z,98730.89
2024-03-27T19:07:47.272Z,98727.23
2024-03-27T19:10:17.595Z,98728.44
2024-03-27T19:12:48.144Z,98718.07
2024-03-27T19:15:18.677Z,98715.07
2024-03-27T19:17:48.801Z,98713.23
2024-03-27T19:20:19.481Z,98709.52
2024-03-27T19:22:49.734Z,98705.17
2024-03-27T19:25:19.962Z,98696.95
2024-03-27T19:27:50.575Z,98696.56
2024-03-27T19:30:21.080Z,98691.68
2024-03-27T19:32:51.646Z,98689.62
2024-03-27T19:35:22.305Z,98690.27
2024-03-27T19:37:52.763Z,98687.36
2024-03-27T19:40:23.324Z,98680.54
2024-03-27T19:42:53.897Z,98677.09
2024-03-27T19:45:24.525Z,98674.51
2024-03-27T19:47:55.093Z,98670.78
2024-03-27T19:50:25.543Z,98673.01
2024-03-27T19:52:56.183Z,98678.96
2024-03-27T19:55:26.685Z,98679.14
2024-03-27T19:57:57.278Z,98677.32
2024-03-27T20:00:27.845Z,98675.47
2024-03-27T20:02:58.416Z,98678.25
2024-03-27T20:05:28.944Z,98678.50
2024-03-27T20:07:59.614Z,98675.21
2024-03-27T20:10:30.096Z,98669.94
2024-03-27T20:13:00.772Z,98666.13
2024-03-27T20:15:31.277Z,98663.16
2024-03-27T20:18:01.864Z,98660.18
2024-03-27T20:20:32.396Z,98660.08
2024-03-27T20:23:03.006Z,98654.35
2024-03-27T20:25:33.560Z,98647.30
2024-03-27T20:28:04.241Z,98639.40
2024-03-27T20:30:34.429Z,98634.12
2024-03-27T20:33:05.018Z,98630.72
2024-03-27T20:35:35.594Z,98629.06
2024-03-27T20:38:06.195Z,98637.19
2024-03-27T20:40:36.781Z,98639.32
2024-03-27T20:43:07.476Z,98636.76
2024-03-27T20:45:37.938Z,98631.98
2024-03-27T20:48:08.554Z,98626.03
2024-03-27T20:50:39.126Z,98614.74
2024-03-27T20:53:09.734Z,98616.38
2024-03-27T20:55:40.297Z,98619.09
2024-03-27T20:58:10.616Z,98625.47
2024-03-27T21:00:41.136Z,98622.10
2024-03-27T21:03:11.748Z,98617.88
2024-03-27T21:05:42.318Z,98611.54
2024-03-27T21:08:12.925Z,98613.03
2024-03-27T21:10:43.515Z,98605.69
2024-03-27T21:13:14.141Z,98601.85
2024-03-27T21:15:44.702Z,98598.59
2024-03-27T21:18:15.290Z,98598.55
2024-03-27T21:20:45.873Z,98599.19
2024-03-27T21:23:15.921Z,98603.21
2024-03-27T21:25:46.144Z,98601.73
2024-03-27T21:28:16.787Z,98601.50
2024-03-27T21:30:47.065Z,98599.42
2024-03-27T21:33:17.690Z,98601.64
2024-03-27T21:35:48.257Z,98605.78
2024-03-27T21:38:18.893Z,98606.82
2024-03-27T21:40:49.703Z,98604.62
2024-03-27T21:43:19.851Z,98598.59
2024-03-27T21:45:50.418Z,98594.63
2024-03-27T21:48:21.019Z,98599.80
2024-03-27T21:50:51.280Z,98602.48
2024-03-27T21:53:21.929Z,98606.55
2024-03-27T21:55:52.236Z,98603.43
2024-03-27T21:58:22.858Z,98602.80
2024-03-27T22:00:53.168Z,98601.01
2024-03-27T22:03:23.903Z,98601.60
2024-03-27T22:05:54.022Z,98598.28
2024-03-27T22:08:24.382Z,98598.10
2024-03-27T22:10:54.942Z,98594.49
2024-03-27T22:13:25.852Z,98590.20
2024-03-27T22:15:56.441Z,98586.83
2024-03-27T22:18:27.009Z,98583.02
2024-03-27T22:23:27.662Z,98573.53
2024-03-27T22:25:58.255Z,98567.26
2024-03-27T22:28:28.915Z,98561.39
2024-03-27T22:30:59.593Z,98559.38
2024-03-27T22:33:29.561Z,98558.06
2024-03-27T22:35:59.820Z,98554.15
2024-03-27T22:38:30.463Z,98550.93
2024-03-27T22:41:00.778Z,98546.33
2024-03-27T22:43:31.418Z,98540.28
2024-03-27T22:46:01.955Z,98535.59
2024-03-27T22:48:32.592Z,98534.14
2024-03-27T22:51:02.852Z,98535.17
2024-03-27T22:53:33.368Z,98532.53
2024-03-27T22:56:03.482Z,98530.45
2024-03-27T22:58:34.413Z,98526.86
2024-03-27T23:01:05.232Z,98527.56
2024-03-27T23:03:35.884Z,98535.05
2024-03-27T23:06:06.517Z,98538.68
2024-03-27T23:08:37.379Z,98544.34
2024-03-27T23:11:07.631Z,98544.31
2024-03-27T23:13:37.717Z,98544.61
2024-03-27T23:16:07.784Z,98546.58
2024-03-27T23:18:38.358Z,98545.26
2024-03-27T23:21:08.625Z,98538.21
2024-03-27T23:23:39.251Z,98529.15
2024-03-27T23:26:09.308Z,98528.16
2024-03-27T23:28:39.492Z,98531.74
2024-03-27T23:31:09.818Z,98540.65
2024-03-27T23:33:40.454Z,98539.82
2024-03-27T23:36:10.958Z,98534.69
2024-03-27T23:38:41.881Z,98535.86
2024-03-27T23:41:12.432Z,98534.80
2024-03-27T23:43:43.041Z,98525.92
2024-03-27T23:46:13.674Z,98526.38
2024-03-27T23:48:44.040Z,98524.33
2024-03-27T23:51:14.306Z,98522.34
2024-03-27T23:53:44.682Z,98523.75
2024-03-27T23:56:15.455Z,98519.57
2024-03-27T23:58:45.823Z,98520.99
